Time;durP1;ratioP1;P1;durP2;ratioP2;P2;SDS_P1;SDS_P2;PMS_P1;PMS_P2;Temp;Humidity;BMP_temperature;BMP_pressure;BME280_temperature;BME280_humidity;BME280_pressure;Samples;Min_cycle;Max_cycle;Signal;HPM_P1;HPM_P2
2022/11/09 00:00:05;;;;;;;7.32;1.60;;;;;;;;;;5013315;28;20040;-75
2022/11/09 00:02:31;;;;;;;5.63;1.90;;;;;;;;;;5001747;28;20047;-74
2022/11/09 00:04:58;;;;;;;8.60;2.08;;;;;;;;;;5008423;28;20095;-74
2022/11/09 00:07:24;;;;;;;3.08;1.65;;;;;;;;;;5010530;28;20132;-75
2022/11/09 00:09:50;;;;;;;4.40;2.33;;;;;;;;;;5030074;28;20047;-75
2022/11/09 00:12:16;;;;;;;8.25;2.08;;;;;;;;;;5031637;28;20029;-76
2022/11/09 00:14:42;;;;;;;5.63;2.40;;;;;;;;;;5022149;28;20068;-78
2022/11/09 00:17:08;;;;;;;4.10;2.03;;;;;;;;;;5059103;28;20029;-76
2022/11/09 00:19:34;;;;;;;6.57;1.65;;;;;;;;;;5019496;28;20041;-77
2022/11/09 00:22:00;;;;;;;6.15;1.80;;;;;;;;;;4998891;28;20056;-77
2022/11/09 00:24:26;;;;;;;5.60;2.10;;;;;;;;;;5026662;28;20049;-75
2022/11/09 00:26:52;;;;;;;7.22;2.30;;;;;;;;;;5016264;28;20061;-76
2022/11/09 00:29:18;;;;;;;5.65;2.20;;;;;;;;;;5010498;28;20503;-76
2022/11/09 00:31:44;;;;;;;4.07;2.58;;;;;;;;;;5007725;28;20049;-76
2022/11/09 00:34:10;;;;;;;5.20;2.63;;;;;;;;;;5025548;28;20043;-77
2022/11/09 00:36:36;;;;;;;5.25;2.72;;;;;;;;;;4999273;28;20099;-76
2022/11/09 00:39:02;;;;;;;8.95;3.97;;;;;;;;;;5007887;28;20209;-76
2022/11/09 00:41:29;;;;;;;7.05;3.38;;;;;;;;;;5011245;28;20528;-76
2022/11/09 00:43:55;;;;;;;8.45;3.85;;;;;;;;;;5009775;28;20045;-76
2022/11/09 00:46:21;;;;;;;5.68;2.97;;;;;;;;;;5011428;28;20044;-76
2022/11/09 00:48:47;;;;;;;10.23;4.05;;;;;;;;;;5033445;28;20386;-77
2022/11/09 00:51:13;;;;;;;3.78;2.70;;;;;;;;;;5010446;28;20056;-76
2022/11/09 00:53:39;;;;;;;7.88;2.90;;;;;;;;;;5014912;28;20162;-76
2022/11/09 00:56:07;;;;;;;9.13;2.40;;;;;;;;;;5016473;28;20040;-76
2022/11/09 00:58:34;;;;;;;6.90;2.42;;;;;;;;;;5014901;28;20044;-76
2022/11/09 01:01:05;;;;;;;7.15;2.47;;;;;;;;;;5014123;28;20487;-75
2022/11/09 01:03:31;;;;;;;5.88;2.38;;;;;;;;;;5010427;28;20041;-76
2022/11/09 01:06:00;;;;;;;6.38;2.97;;;;;;;;;;5014427;28;20047;-75
2022/11/09 01:08:26;;;;;;;7.75;2.83;;;;;;;;;;5031920;28;20053;-75
2022/11/09 01:10:52;;;;;;;7.07;2.67;;;;;;;;;;5011531;28;20080;-76
2022/11/09 01:13:19;;;;;;;4.93;2.78;;;;;;;;;;4992217;28;20222;-76
2022/11/09 01:15:46;;;;;;;5.85;2.38;;;;;;;;;;5015168;28;20091;-75
2022/11/09 01:18:13;;;;;;;9.63;2.60;;;;;;;;;;5012241;28;20052;-75
2022/11/09 01:20:40;;;;;;;5.50;2.72;;;;;;;;;;5004254;28;20045;-75
2022/11/09 01:23:06;;;;;;;4.47;2.22;;;;;;;;;;5019387;28;20910;-75
2022/11/09 01:25:32;;;;;;;6.18;2.63;;;;;;;;;;5036750;28;20041;-75
2022/11/09 01:27:59;;;;;;;6.70;2.63;;;;;;;;;;5003718;28;20061;-75
2022/11/09 01:30:25;;;;;;;5.82;2.15;;;;;;;;;;5031509;28;20036;-75
2022/11/09 01:32:51;;;;;;;6.32;2.63;;;;;;;;;;5001120;28;20127;-76
2022/11/09 01:35:17;;;;;;;7.57;2.47;;;;;;;;;;5011294;28;20057;-75
2022/11/09 01:37:43;;;;;;;4.75;2.50;;;;;;;;;;5029754;28;20126;-76
2022/11/09 01:40:09;;;;;;;5.35;2.65;;;;;;;;;;5015204;28;20160;-76
2022/11/09 01:42:37;;;;;;;6.72;2.90;;;;;;;;;;5011077;28;20075;-75
2022/11/09 01:45:32;;;;;;;3.60;2.42;;;;;;;;;;5016200;28;20048;-75
2022/11/09 01:48:11;;;;;;;7.47;2.72;;;;;;;;;;4993415;28;20053;-75
2022/11/09 01:50:43;;;;;;;8.07;2.80;;;;;;;;;;5033421;28;20036;-75
2022/11/09 01:53:12;;;;;;;9.57;2.85;;;;;;;;;;5050541;28;20037;-74
2022/11/09 01:55:39;;;;;;;9.18;2.85;;;;;;;;;;5037265;28;20954;-75
2022/11/09 01:58:07;;;;;;;5.85;2.42;;;;;;;;;;5034101;28;20061;-74
2022/11/09 02:00:36;;;;;;;7.40;2.55;;;;;;;;;;5032846;28;20051;-74
2022/11/09 02:03:05;;;;;;;8.63;2.65;;;;;;;;;;5034461;28;20041;-75
2022/11/09 02:05:33;;;;;;;5.18;2.55;;;;;;;;;;5027813;28;20051;-74
2022/11/09 02:08:00;;;;;;;9.25;2.90;;;;;;;;;;5042380;28;20072;-75
2022/11/09 02:10:30;;;;;;;7.10;2.45;;;;;;;;;;5011039;28;20049;-74
2022/11/09 02:12:57;;;;;;;6.38;2.72;;;;;;;;;;5012526;28;20186;-75
2022/11/09 02:15:23;;;;;;;9.02;2.88;;;;;;;;;;5006783;28;20040;-75
2022/11/09 02:17:52;;;;;;;7.45;2.67;;;;;;;;;;5014871;28;20168;-75
2022/11/09 02:20:18;;;;;;;6.57;2.75;;;;;;;;;;5013648;28;20055;-75
2022/11/09 02:22:44;;;;;;;8.00;2.63;;;;;;;;;;5007276;28;20122;-75
2022/11/09 02:25:12;;;;;;;6.53;3.00;;;;;;;;;;5010934;28;20048;-75
2022/11/09 02:27:38;;;;;;;9.70;2.60;;;;;;;;;;5015608;28;20052;-73
2022/11/09 02:30:05;;;;;;;10.15;3.17;;;;;;;;;;5030002;28;20051;-74
2022/11/09 02:32:31;;;;;;;12.30;4.55;;;;;;;;;;5009591;28;20049;-74
2022/11/09 02:34:57;;;;;;;8.88;2.63;;;;;;;;;;5010810;28;20543;-74
2022/11/09 02:37:26;;;;;;;8.70;2.92;;;;;;;;;;5011046;28;20051;-75
2022/11/09 02:39:53;;;;;;;8.32;2.65;;;;;;;;;;5009650;28;20156;-74
2022/11/09 02:42:19;;;;;;;12.32;3.10;;;;;;;;;;5005839;28;21034;-75
2022/11/09 02:44:46;;;;;;;9.15;2.90;;;;;;;;;;4999841;28;20063;-75
2022/11/09 02:47:12;;;;;;;12.80;3.10;;;;;;;;;;5011824;28;20107;-73
2022/11/09 02:49:39;;;;;;;11.57;2.70;;;;;;;;;;5026128;28;20072;-74
2022/11/09 02:52:05;;;;;;;8.40;2.63;;;;;;;;;;5026341;28;20099;-74
2022/11/09 02:54:31;;;;;;;5.72;2.58;;;;;;;;;;5013506;28;20505;-74
2022/11/09 02:56:57;;;;;;;9.57;2.92;;;;;;;;;;4981179;28;20093;-74
2022/11/09 02:59:23;;;;;;;8.10;3.08;;;;;;;;;;4981426;28;20049;-74
2022/11/09 03:01:49;;;;;;;15.45;3.10;;;;;;;;;;5022327;28;20123;-74
2022/11/09 03:04:15;;;;;;;11.93;3.83;;;;;;;;;;5012221;28;20049;-75
2022/11/09 03:06:41;;;;;;;8.95;3.15;;;;;;;;;;4993917;28;20037;-74
2022/11/09 03:09:11;;;;;;;14.43;3.35;;;;;;;;;;5015552;28;20047;-74
2022/11/09 03:11:38;;;;;;;10.52;3.20;;;;;;;;;;5023167;28;21436;-74
2022/11/09 03:14:04;;;;;;;11.05;3.25;;;;;;;;;;5014863;28;20051;-75
2022/11/09 03:16:30;;;;;;;9.55;3.15;;;;;;;;;;5015039;28;20037;-74
2022/11/09 03:18:57;;;;;;;10.13;3.63;;;;;;;;;;5013781;28;20056;-74
2022/11/09 03:21:23;;;;;;;7.70;2.70;;;;;;;;;;5033221;28;20047;-74
2022/11/09 03:23:50;;;;;;;7.22;3.17;;;;;;;;;;5037543;28;20037;-75
2022/11/09 03:26:16;;;;;;;9.48;3.22;;;;;;;;;;5019657;28;20060;-75
2022/11/09 03:28:42;;;;;;;9.98;2.97;;;;;;;;;;5007006;28;20040;-75
2022/11/09 03:31:08;;;;;;;10.52;4.68;;;;;;;;;;5037525;28;20134;-74
2022/11/09 03:33:34;;;;;;;11.65;3.75;;;;;;;;;;5018809;28;20120;-74
2022/11/09 03:36:01;;;;;;;7.03;2.50;;;;;;;;;;5032227;28;20055;-75
2022/11/09 03:38:27;;;;;;;11.15;3.28;;;;;;;;;;5027876;28;20028;-75
2022/11/09 03:40:53;;;;;;;11.45;2.70;;;;;;;;;;5032283;28;20052;-73
2022/11/09 03:43:19;;;;;;;5.57;2.72;;;;;;;;;;5015914;28;20078;-73
2022/11/09 03:45:46;;;;;;;9.60;3.50;;;;;;;;;;5025884;28;20471;-73
2022/11/09 03:48:12;;;;;;;12.88;3.25;;;;;;;;;;5003952;28;20049;-73
2022/11/09 03:50:39;;;;;;;8.13;2.85;;;;;;;;;;5005710;28;20079;-73
2022/11/09 03:53:05;;;;;;;7.55;2.55;;;;;;;;;;5015194;28;20934;-74
2022/11/09 03:55:31;;;;;;;13.15;3.08;;;;;;;;;;5003102;28;20124;-74
2022/11/09 03:57:57;;;;;;;8.68;2.50;;;;;;;;;;4981072;28;20138;-73
2022/11/09 04:00:24;;;;;;;8.95;1.98;;;;;;;;;;5014256;28;20044;-73
2022/11/09 04:02:50;;;;;;;8.65;3.13;;;;;;;;;;5025510;28;20064;-73
2022/11/09 04:05:16;;;;;;;8.07;2.72;;;;;;;;;;5001137;28;21045;-74
2022/11/09 04:07:49;;;;;;;10.02;2.75;;;;;;;;;;5024713;28;20094;-75
2022/11/09 04:10:15;;;;;;;9.25;2.30;;;;;;;;;;5028384;28;20037;-75
2022/11/09 04:12:41;;;;;;;16.02;2.75;;;;;;;;;;4986660;28;20041;-75
2022/11/09 04:15:08;;;;;;;17.25;5.35;;;;;;;;;;5030106;28;20036;-74
2022/11/09 04:17:34;;;;;;;12.13;3.00;;;;;;;;;;5013141;28;20045;-75
2022/11/09 04:20:00;;;;;;;8.73;2.20;;;;;;;;;;5027593;28;20618;-74
2022/11/09 04:22:26;;;;;;;8.10;2.65;;;;;;;;;;5024003;28;20045;-74
2022/11/09 04:24:53;;;;;;;13.73;3.67;;;;;;;;;;5013121;28;20130;-75
2022/11/09 04:27:19;;;;;;;11.88;2.42;;;;;;;;;;5007095;28;20141;-74
2022/11/09 04:29:45;;;;;;;10.48;2.20;;;;;;;;;;4998702;28;20596;-75
2022/11/09 04:32:11;;;;;;;12.05;2.22;;;;;;;;;;4986052;28;20045;-74
2022/11/09 04:34:37;;;;;;;7.40;1.98;;;;;;;;;;5011159;28;20094;-74
2022/11/09 04:37:03;;;;;;;7.78;2.08;;;;;;;;;;5012289;28;20596;-73
2022/11/09 04:39:29;;;;;;;7.65;2.47;;;;;;;;;;4989593;28;21825;-73
2022/11/09 04:41:55;;;;;;;9.88;2.20;;;;;;;;;;5005257;28;20492;-74
2022/11/09 04:44:21;;;;;;;13.68;2.38;;;;;;;;;;5008055;28;20061;-73
2022/11/09 04:46:47;;;;;;;12.57;2.15;;;;;;;;;;4989988;28;20168;-73
2022/11/09 04:49:13;;;;;;;9.70;2.58;;;;;;;;;;5008157;28;20049;-73
2022/11/09 04:51:39;;;;;;;12.85;2.13;;;;;;;;;;5012990;28;22070;-73
2022/11/09 04:54:05;;;;;;;11.80;2.33;;;;;;;;;;5007691;28;20482;-74
2022/11/09 04:56:32;;;;;;;12.85;2.38;;;;;;;;;;5025042;28;20129;-73
2022/11/09 04:58:58;;;;;;;10.68;2.10;;;;;;;;;;5012760;28;20120;-74
2022/11/09 05:01:24;;;;;;;9.52;3.15;;;;;;;;;;4988793;28;20045;-73
2022/11/09 05:03:50;;;;;;;7.00;2.08;;;;;;;;;;5021331;28;20156;-73
2022/11/09 05:06:31;;;;;;;9.77;2.15;;;;;;;;;;4988557;28;20037;-73
2022/11/09 05:08:58;;;;;;;8.20;2.53;;;;;;;;;;5009729;28;20127;-73
2022/11/09 05:11:24;;;;;;;14.65;2.80;;;;;;;;;;5003176;28;20045;-73
2022/11/09 05:13:52;;;;;;;8.68;2.35;;;;;;;;;;5015858;28;20052;-75
2022/11/09 05:16:19;;;;;;;8.65;2.40;;;;;;;;;;5017153;28;20041;-74
2022/11/09 05:18:45;;;;;;;11.40;2.70;;;;;;;;;;5020598;28;20049;-74
2022/11/09 05:21:12;;;;;;;11.95;2.47;;;;;;;;;;5031819;28;20032;-73
2022/11/09 05:26:23;;;;;;;8.23;2.22;;;;;;;;;;5008627;28;20057;-74
2022/11/09 05:28:49;;;;;;;10.48;2.22;;;;;;;;;;5007358;28;21018;-75
2022/11/09 05:31:15;;;;;;;10.48;2.47;;;;;;;;;;4998739;28;21972;-75
2022/11/09 05:33:41;;;;;;;11.15;2.58;;;;;;;;;;4998138;28;20048;-74
2022/11/09 05:36:07;;;;;;;13.23;3.17;;;;;;;;;;5004126;28;20033;-74
2022/11/09 05:38:33;;;;;;;11.82;2.53;;;;;;;;;;4999680;28;20150;-75
2022/11/09 05:40:59;;;;;;;12.52;2.83;;;;;;;;;;4990454;28;20137;-74
2022/11/09 05:43:25;;;;;;;7.35;2.35;;;;;;;;;;5001242;28;20183;-72
2022/11/09 05:45:52;;;;;;;8.95;2.42;;;;;;;;;;4998072;28;20060;-73
2022/11/09 05:48:18;;;;;;;10.68;2.58;;;;;;;;;;5008114;28;20099;-72
2022/11/09 05:50:44;;;;;;;8.13;2.80;;;;;;;;;;5003291;28;20405;-72
2022/11/09 05:53:11;;;;;;;9.93;2.67;;;;;;;;;;5001330;28;20068;-72
2022/11/09 05:55:37;;;;;;;14.85;2.60;;;;;;;;;;5006134;28;20088;-72
2022/11/09 05:58:04;;;;;;;11.65;2.75;;;;;;;;;;5012396;28;20512;-71
2022/11/09 06:00:30;;;;;;;10.18;2.47;;;;;;;;;;5005126;28;20083;-72
2022/11/09 06:03:06;;;;;;;9.68;2.72;;;;;;;;;;5008683;28;20950;-72
2022/11/09 06:05:33;;;;;;;5.97;2.45;;;;;;;;;;5012845;28;20040;-72
2022/11/09 06:08:04;;;;;;;10.05;2.78;;;;;;;;;;5007477;28;20052;-73
2022/11/09 06:10:30;;;;;;;6.60;2.83;;;;;;;;;;5009539;28;20050;-71
2022/11/09 06:12:57;;;;;;;3.95;1.73;;;;;;;;;;5006574;28;20056;-71
2022/11/09 06:15:23;;;;;;;18.83;2.53;;;;;;;;;;4992519;28;20049;-72
2022/11/09 06:17:55;;;;;;;13.13;2.70;;;;;;;;;;5011508;28;20046;-70
2022/11/09 06:20:22;;;;;;;6.80;2.10;;;;;;;;;;5003586;28;20057;-71
2022/11/09 06:22:55;;;;;;;10.82;2.75;;;;;;;;;;4989505;28;20037;-71
2022/11/09 06:25:21;;;;;;;9.38;2.70;;;;;;;;;;5008047;28;20128;-72
2022/11/09 06:27:47;;;;;;;4.90;2.05;;;;;;;;;;5025584;28;20993;-72
2022/11/09 06:30:14;;;;;;;5.97;1.90;;;;;;;;;;5012556;28;20052;-72
2022/11/09 06:32:40;;;;;;;8.10;2.08;;;;;;;;;;5022227;28;22285;-72
2022/11/09 06:35:06;;;;;;;11.10;2.40;;;;;;;;;;5010934;28;20110;-72
2022/11/09 06:37:32;;;;;;;6.88;1.92;;;;;;;;;;5011379;28;20055;-71
2022/11/09 06:39:58;;;;;;;11.25;3.22;;;;;;;;;;5009403;28;20036;-72
2022/11/09 06:42:24;;;;;;;7.85;2.25;;;;;;;;;;5012032;28;20048;-72
2022/11/09 06:44:50;;;;;;;11.23;3.15;;;;;;;;;;5012768;28;21764;-72
2022/11/09 06:47:16;;;;;;;9.07;2.40;;;;;;;;;;4983625;28;20461;-71
2022/11/09 06:49:42;;;;;;;8.65;2.60;;;;;;;;;;4988467;28;20128;-72
2022/11/09 06:52:08;;;;;;;10.25;2.50;;;;;;;;;;4998237;28;20048;-71
2022/11/09 06:54:34;;;;;;;6.53;2.08;;;;;;;;;;5012323;28;20048;-71
2022/11/09 06:57:01;;;;;;;7.93;2.20;;;;;;;;;;5020417;28;20049;-71
2022/11/09 06:59:27;;;;;;;6.47;2.15;;;;;;;;;;5047499;28;20068;-72
2022/11/09 07:01:53;;;;;;;10.15;2.42;;;;;;;;;;5031568;28;20041;-71
2022/11/09 07:04:19;;;;;;;14.18;3.85;;;;;;;;;;5019032;28;20120;-71
2022/11/09 07:06:45;;;;;;;12.90;3.40;;;;;;;;;;5013138;28;20036;-72
2022/11/09 07:09:12;;;;;;;9.82;2.35;;;;;;;;;;4980546;28;20141;-72
2022/11/09 07:11:38;;;;;;;6.60;3.53;;;;;;;;;;4998099;28;20457;-73
2022/11/09 07:14:04;;;;;;;7.90;2.28;;;;;;;;;;5006443;28;20049;-72
2022/11/09 07:16:30;;;;;;;10.52;2.75;;;;;;;;;;5006118;28;20114;-72
2022/11/09 07:18:56;;;;;;;7.47;2.30;;;;;;;;;;5011353;28;20156;-72
2022/11/09 07:21:22;;;;;;;14.88;2.92;;;;;;;;;;5030017;28;20036;-71
2022/11/09 07:23:49;;;;;;;10.05;2.53;;;;;;;;;;4995359;28;20504;-71
2022/11/09 07:26:15;;;;;;;9.00;2.28;;;;;;;;;;5007398;28;20052;-72
2022/11/09 07:28:41;;;;;;;9.90;2.50;;;;;;;;;;5010911;28;20212;-72
2022/11/09 07:31:08;;;;;;;6.85;1.90;;;;;;;;;;5003990;28;20049;-72
2022/11/09 07:33:34;;;;;;;9.85;2.17;;;;;;;;;;5027256;28;20056;-72
2022/11/09 07:36:01;;;;;;;11.15;2.30;;;;;;;;;;5027001;28;20257;-71
2022/11/09 07:38:28;;;;;;;10.77;2.55;;;;;;;;;;5027611;28;20437;-72
2022/11/09 07:40:54;;;;;;;8.95;2.17;;;;;;;;;;4995968;28;20493;-71
2022/11/09 07:43:20;;;;;;;10.32;2.45;;;;;;;;;;5009955;28;20085;-71
2022/11/09 07:45:46;;;;;;;7.18;2.45;;;;;;;;;;5002082;28;20509;-71
2022/11/09 07:48:12;;;;;;;8.70;2.58;;;;;;;;;;5009055;28;20538;-71
2022/11/09 07:50:39;;;;;;;7.78;2.30;;;;;;;;;;5008990;28;20048;-71
2022/11/09 07:53:06;;;;;;;17.60;2.60;;;;;;;;;;5013295;28;20048;-71
2022/11/09 07:55:33;;;;;;;6.93;2.38;;;;;;;;;;5002499;28;20066;-70
2022/11/09 07:58:00;;;;;;;14.30;2.40;;;;;;;;;;5027744;28;20052;-70
2022/11/09 08:00:27;;;;;;;13.95;2.97;;;;;;;;;;5009941;28;20041;-71
2022/11/09 08:02:53;;;;;;;7.10;2.00;;;;;;;;;;5027791;28;20045;-71
2022/11/09 08:05:19;;;;;;;10.40;2.55;;;;;;;;;;5013199;28;20037;-72
2022/11/09 08:07:45;;;;;;;14.73;2.20;;;;;;;;;;5007778;28;20476;-72
2022/11/09 08:10:12;;;;;;;10.00;3.08;;;;;;;;;;5026524;28;20136;-72
2022/11/09 08:12:38;;;;;;;11.13;2.45;;;;;;;;;;5028194;28;20048;-72
2022/11/09 08:15:05;;;;;;;6.50;1.77;;;;;;;;;;4989481;28;20079;-72
2022/11/09 08:17:31;;;;;;;12.50;2.30;;;;;;;;;;5024451;28;20047;-72
2022/11/09 08:19:57;;;;;;;12.68;2.28;;;;;;;;;;4999875;28;20037;-72
2022/11/09 08:22:23;;;;;;;13.82;2.50;;;;;;;;;;5008499;28;20037;-74
2022/11/09 08:24:50;;;;;;;11.25;2.28;;;;;;;;;;5009210;28;20137;-74
2022/11/09 08:27:16;;;;;;;10.85;2.35;;;;;;;;;;5025670;28;20049;-74
2022/11/09 08:29:42;;;;;;;11.90;2.22;;;;;;;;;;5008151;28;20567;-75
2022/11/09 08:32:08;;;;;;;10.27;2.72;;;;;;;;;;5007685;28;20045;-74
2022/11/09 08:34:34;;;;;;;14.57;2.50;;;;;;;;;;5010705;28;20041;-74
2022/11/09 08:37:01;;;;;;;7.90;2.00;;;;;;;;;;5021396;28;20556;-75
2022/11/09 08:39:27;;;;;;;12.30;2.95;;;;;;;;;;5032816;28;20041;-74
2022/11/09 08:41:53;;;;;;;7.43;2.25;;;;;;;;;;5038002;28;20044;-73
2022/11/09 08:44:19;;;;;;;15.07;2.85;;;;;;;;;;5035447;28;20044;-74
2022/11/09 08:46:45;;;;;;;10.43;2.70;;;;;;;;;;5020654;28;20182;-73
2022/11/09 08:49:12;;;;;;;9.45;1.90;;;;;;;;;;5016905;28;20052;-73
2022/11/09 08:51:38;;;;;;;4.80;1.63;;;;;;;;;;5017755;28;20497;-74
2022/11/09 08:54:04;;;;;;;8.60;2.50;;;;;;;;;;5033256;28;20638;-74
2022/11/09 08:56:30;;;;;;;10.73;1.95;;;;;;;;;;5018753;28;20335;-74
2022/11/09 08:58:56;;;;;;;10.00;2.28;;;;;;;;;;5015150;28;20148;-71
2022/11/09 09:01:24;;;;;;;12.20;2.38;;;;;;;;;;5012857;28;20068;-74
2022/11/09 09:03:50;;;;;;;16.40;2.95;;;;;;;;;;5002979;28;20037;-74
2022/11/09 09:06:16;;;;;;;6.55;2.33;;;;;;;;;;5018486;28;20048;-73
2022/11/09 09:08:42;;;;;;;11.13;2.33;;;;;;;;;;5008399;28;20054;-72
2022/11/09 09:11:08;;;;;;;15.73;2.50;;;;;;;;;;5020593;28;20131;-73
2022/11/09 09:13:34;;;;;;;10.63;2.50;;;;;;;;;;5020445;28;20041;-74
2022/11/09 09:16:10;;;;;;;10.25;2.20;;;;;;;;;;5015402;28;20048;-74
2022/11/09 09:18:36;;;;;;;12.88;2.60;;;;;;;;;;5014139;28;20096;-73
2022/11/09 09:21:05;;;;;;;10.50;2.45;;;;;;;;;;5017943;28;20118;-73
2022/11/09 09:23:31;;;;;;;10.82;2.28;;;;;;;;;;5017656;28;20068;-74
2022/11/09 09:25:57;;;;;;;14.77;2.90;;;;;;;;;;5034528;28;20416;-74
2022/11/09 09:28:23;;;;;;;8.95;2.28;;;;;;;;;;4991812;28;20054;-73
2022/11/09 09:30:49;;;;;;;10.15;2.70;;;;;;;;;;5017109;28;20397;-72
2022/11/09 09:33:15;;;;;;;8.25;2.30;;;;;;;;;;5009596;28;20049;-73
2022/11/09 09:35:41;;;;;;;15.07;3.38;;;;;;;;;;4995495;28;20521;-73
2022/11/09 09:38:07;;;;;;;13.60;3.38;;;;;;;;;;5008360;28;20041;-74
2022/11/09 09:40:40;;;;;;;12.20;3.20;;;;;;;;;;5012147;28;20045;-74
2022/11/09 09:43:06;;;;;;;15.40;2.70;;;;;;;;;;4994047;28;20473;-74
2022/11/09 09:45:34;;;;;;;9.40;2.33;;;;;;;;;;5009171;28;20515;-74
2022/11/09 09:48:04;;;;;;;12.32;2.30;;;;;;;;;;5015001;28;20439;-74
2022/11/09 09:50:40;;;;;;;11.98;3.03;;;;;;;;;;4984671;28;20038;-74
2022/11/09 09:53:12;;;;;;;14.35;2.65;;;;;;;;;;5011723;28;20591;-73
2022/11/09 09:55:40;;;;;;;19.80;3.47;;;;;;;;;;5011150;28;20064;-74
2022/11/09 09:58:26;;;;;;;8.82;2.22;;;;;;;;;;5015523;28;20073;-74
2022/11/09 10:00:54;;;;;;;12.60;2.67;;;;;;;;;;5010322;28;20471;-75
2022/11/09 10:03:21;;;;;;;13.48;3.30;;;;;;;;;;5025750;28;20050;-74
2022/11/09 10:05:50;;;;;;;13.50;3.08;;;;;;;;;;5015779;28;20047;-74
2022/11/09 10:08:21;;;;;;;13.57;2.60;;;;;;;;;;5007983;28;20037;-72
2022/11/09 10:11:16;;;;;;;11.95;2.42;;;;;;;;;;5012383;28;20053;-73
2022/11/09 10:13:48;;;;;;;12.80;2.45;;;;;;;;;;4982100;28;20141;-73
2022/11/09 10:16:26;;;;;;;12.68;2.15;;;;;;;;;;5033163;28;20084;-73
2022/11/09 10:19:19;;;;;;;9.90;2.40;;;;;;;;;;5042888;28;20068;-73
2022/11/09 10:22:05;;;;;;;9.50;2.35;;;;;;;;;;5014163;28;20049;-73
2022/11/09 10:24:38;;;;;;;10.15;3.03;;;;;;;;;;5026121;28;20044;-73
2022/11/09 10:27:10;;;;;;;8.02;2.13;;;;;;;;;;5016248;28;20136;-73
2022/11/09 10:29:43;;;;;;;12.02;2.75;;;;;;;;;;5031066;28;20661;-74
2022/11/09 10:32:13;;;;;;;9.93;2.60;;;;;;;;;;5013304;28;20102;-74
2022/11/09 10:34:43;;;;;;;13.55;3.30;;;;;;;;;;5011120;28;20804;-74
2022/11/09 10:37:12;;;;;;;12.05;2.20;;;;;;;;;;5016828;28;20405;-72
2022/11/09 10:39:41;;;;;;;14.65;3.50;;;;;;;;;;5010881;28;20045;-73
2022/11/09 10:42:10;;;;;;;10.52;2.42;;;;;;;;;;5032269;28;20144;-73
2022/11/09 10:44:37;;;;;;;16.88;3.17;;;;;;;;;;5013039;28;20044;-74
2022/11/09 10:47:10;;;;;;;10.82;2.80;;;;;;;;;;5027562;28;20554;-73
2022/11/09 10:49:37;;;;;;;16.42;3.22;;;;;;;;;;5013999;28;20657;-74
2022/11/09 10:52:04;;;;;;;12.20;2.85;;;;;;;;;;5033886;28;20149;-74
2022/11/09 10:54:36;;;;;;;12.43;3.40;;;;;;;;;;5009819;28;20150;-74
2022/11/09 10:57:10;;;;;;;12.07;3.47;;;;;;;;;;5013810;28;20080;-73
2022/11/09 10:59:38;;;;;;;9.15;2.95;;;;;;;;;;5004537;28;20124;-74
2022/11/09 11:02:24;;;;;;;9.90;3.03;;;;;;;;;;5029322;28;20045;-74
2022/11/09 11:04:51;;;;;;;14.07;2.88;;;;;;;;;;5012152;28;20846;-74
2022/11/09 11:07:21;;;;;;;9.02;2.88;;;;;;;;;;5011550;28;20045;-74
2022/11/09 11:09:47;;;;;;;10.35;2.78;;;;;;;;;;5035611;28;20036;-74
2022/11/09 11:12:14;;;;;;;15.23;3.60;;;;;;;;;;5013151;28;20167;-73
2022/11/09 11:14:44;;;;;;;12.45;3.22;;;;;;;;;;5012602;28;21045;-74
2022/11/09 11:17:20;;;;;;;12.13;2.90;;;;;;;;;;5028135;28;20132;-74
2022/11/09 11:19:46;;;;;;;11.23;3.08;;;;;;;;;;5031429;28;20045;-74
2022/11/09 11:22:13;;;;;;;9.68;2.70;;;;;;;;;;5015141;28;20041;-73
2022/11/09 11:24:59;;;;;;;11.32;3.22;;;;;;;;;;5029728;28;22533;-73
2022/11/09 11:27:28;;;;;;;11.73;3.60;;;;;;;;;;5003485;28;20579;-74
2022/11/09 11:30:12;;;;;;;12.18;3.88;;;;;;;;;;5000217;28;20135;-74
2022/11/09 11:32:38;;;;;;;13.02;3.75;;;;;;;;;;4980972;28;20136;-74
2022/11/09 11:35:15;;;;;;;12.13;2.88;;;;;;;;;;4982681;28;20476;-72
2022/11/09 11:37:53;;;;;;;15.38;2.78;;;;;;;;;;5002055;28;20079;-73
2022/11/09 11:40:22;;;;;;;11.05;3.00;;;;;;;;;;4986594;28;20081;-74
2022/11/09 11:42:48;;;;;;;12.18;2.92;;;;;;;;;;4988645;28;20069;-74
2022/11/09 11:45:31;;;;;;;15.75;3.40;;;;;;;;;;5002530;28;20049;-74
2022/11/09 11:48:03;;;;;;;5.93;2.47;;;;;;;;;;4988800;28;20049;-73
2022/11/09 11:50:32;;;;;;;10.65;2.90;;;;;;;;;;5005359;28;20041;-74
2022/11/09 11:53:22;;;;;;;12.52;2.92;;;;;;;;;;4989013;28;20469;-73
2022/11/09 11:55:48;;;;;;;6.55;2.63;;;;;;;;;;4988480;28;20498;-73
2022/11/09 11:58:22;;;;;;;10.30;3.42;;;;;;;;;;5000581;28;20064;-73
2022/11/09 12:01:03;;;;;;;11.10;3.13;;;;;;;;;;5011497;28;20052;-73
2022/11/09 12:03:35;;;;;;;9.85;3.03;;;;;;;;;;4996148;28;20038;-74
2022/11/09 12:06:01;;;;;;;14.70;3.65;;;;;;;;;;4978880;28;20048;-73
2022/11/09 12:08:41;;;;;;;14.05;2.92;;;;;;;;;;4990719;28;20045;-74
2022/11/09 12:11:13;;;;;;;12.18;3.22;;;;;;;;;;4989104;28;20084;-74
2022/11/09 12:13:47;;;;;;;8.15;2.50;;;;;;;;;;4999526;28;20056;-73
2022/11/09 12:16:33;;;;;;;8.75;2.38;;;;;;;;;;4982974;28;20049;-73
2022/11/09 12:19:00;;;;;;;14.38;2.70;;;;;;;;;;5005589;28;21071;-73
2022/11/09 12:21:36;;;;;;;8.00;2.60;;;;;;;;;;4989981;28;20278;-74
2022/11/09 12:24:08;;;;;;;10.48;3.17;;;;;;;;;;5002956;28;20041;-73
2022/11/09 12:26:52;;;;;;;7.82;2.38;;;;;;;;;;4990865;28;20132;-74
2022/11/09 12:29:20;;;;;;;11.85;2.70;;;;;;;;;;4992507;28;20145;-73
2022/11/09 12:31:49;;;;;;;10.35;3.28;;;;;;;;;;4989528;28;20049;-74
2022/11/09 12:34:21;;;;;;;12.02;3.00;;;;;;;;;;5006695;28;20942;-74
2022/11/09 12:36:53;;;;;;;9.88;3.00;;;;;;;;;;4990685;28;20666;-75
2022/11/09 12:39:22;;;;;;;14.38;2.97;;;;;;;;;;4989446;28;20060;-74
2022/11/09 12:41:49;;;;;;;11.32;3.00;;;;;;;;;;4989181;28;20532;-73
2022/11/09 12:44:15;;;;;;;7.68;2.67;;;;;;;;;;5005695;28;20068;-74
2022/11/09 12:46:48;;;;;;;9.63;2.97;;;;;;;;;;4970815;28;20136;-71
2022/11/09 12:49:33;;;;;;;9.50;3.08;;;;;;;;;;4989977;28;20041;-73
2022/11/09 12:51:59;;;;;;;15.70;3.58;;;;;;;;;;4987199;28;20163;-72
2022/11/09 12:54:25;;;;;;;13.15;3.92;;;;;;;;;;4989689;28;20528;-73
2022/11/09 12:56:55;;;;;;;11.55;3.30;;;;;;;;;;4987218;28;20052;-74
2022/11/09 12:59:33;;;;;;;20.67;3.40;;;;;;;;;;4990592;28;20617;-73
2022/11/09 13:02:00;;;;;;;11.48;2.65;;;;;;;;;;4986061;28;21435;-73
2022/11/09 13:04:26;;;;;;;11.10;2.60;;;;;;;;;;4988966;28;20049;-72
2022/11/09 13:07:11;;;;;;;17.98;4.05;;;;;;;;;;4988469;28;20194;-73
2022/11/09 13:09:37;;;;;;;7.90;2.25;;;;;;;;;;4983464;28;20058;-73
2022/11/09 13:12:17;;;;;;;8.05;2.63;;;;;;;;;;4975715;28;20457;-73
2022/11/09 13:14:44;;;;;;;10.10;2.75;;;;;;;;;;4989615;28;20480;-73
2022/11/09 13:17:23;;;;;;;7.03;2.15;;;;;;;;;;5008203;28;20053;-73
2022/11/09 13:19:49;;;;;;;9.43;2.47;;;;;;;;;;4988942;28;20049;-73
2022/11/09 13:22:18;;;;;;;14.98;2.95;;;;;;;;;;5009631;28;20118;-73
2022/11/09 13:24:50;;;;;;;8.27;2.03;;;;;;;;;;5007265;28;20049;-73
2022/11/09 13:27:35;;;;;;;16.27;3.03;;;;;;;;;;5010052;28;20052;-73
2022/11/09 13:30:02;;;;;;;10.63;2.28;;;;;;;;;;5014114;28;20060;-74
2022/11/09 13:32:32;;;;;;;10.25;1.73;;;;;;;;;;5001659;28;20045;-74
2022/11/09 13:34:59;;;;;;;10.75;2.95;;;;;;;;;;5027599;28;20041;-77
2022/11/09 13:37:40;;;;;;;12.90;2.90;;;;;;;;;;5059914;28;20100;-76
2022/11/09 13:40:25;;;;;;;12.63;3.90;;;;;;;;;;5028119;28;20037;-76
2022/11/09 13:42:56;;;;;;;15.55;3.50;;;;;;;;;;5018015;28;20056;-76
2022/11/09 13:45:27;;;;;;;10.00;3.40;;;;;;;;;;5014610;28;20099;-76
2022/11/09 13:47:53;;;;;;;8.23;3.15;;;;;;;;;;5015733;28;20051;-76
2022/11/09 13:50:21;;;;;;;12.95;3.10;;;;;;;;;;4999777;28;20086;-75
2022/11/09 13:52:49;;;;;;;10.88;3.22;;;;;;;;;;5018913;28;20044;-75
2022/11/09 13:55:22;;;;;;;9.15;2.80;;;;;;;;;;5017409;28;20064;-76
2022/11/09 13:57:48;;;;;;;13.57;3.97;;;;;;;;;;5021550;28;20045;-76
2022/11/09 14:00:22;;;;;;;13.00;3.35;;;;;;;;;;5009067;28;20040;-77
2022/11/09 14:03:01;;;;;;;12.45;4.13;;;;;;;;;;5022312;28;20041;-77
2022/11/09 14:05:33;;;;;;;14.15;4.22;;;;;;;;;;4990622;28;20052;-76
2022/11/09 14:08:00;;;;;;;12.68;4.30;;;;;;;;;;4995575;28;20123;-76
2022/11/09 14:10:35;;;;;;;10.82;3.55;;;;;;;;;;4999682;28;20159;-77
2022/11/09 14:13:04;;;;;;;8.63;2.75;;;;;;;;;;5016516;28;20056;-75
2022/11/09 14:15:39;;;;;;;12.65;3.20;;;;;;;;;;5012848;28;20060;-75
2022/11/09 14:18:12;;;;;;;10.02;3.17;;;;;;;;;;5018015;28;20389;-75
2022/11/09 14:20:47;;;;;;;14.85;4.25;;;;;;;;;;5034697;28;20049;-74
2022/11/09 14:23:15;;;;;;;13.02;4.30;;;;;;;;;;4988078;28;20159;-75
2022/11/09 14:25:41;;;;;;;10.43;3.20;;;;;;;;;;5017098;28;20052;-75
2022/11/09 14:28:24;;;;;;;12.23;2.72;;;;;;;;;;4994535;28;20136;-75
2022/11/09 14:30:50;;;;;;;9.13;3.00;;;;;;;;;;5010397;28;20056;-75
2022/11/09 14:33:21;;;;;;;10.63;2.70;;;;;;;;;;4980115;28;20124;-75
2022/11/09 14:35:48;;;;;;;8.80;2.85;;;;;;;;;;4991994;28;20080;-75
2022/11/09 14:38:19;;;;;;;11.60;2.70;;;;;;;;;;4993986;28;20041;-74
2022/11/09 14:40:46;;;;;;;8.63;3.10;;;;;;;;;;4993991;28;20076;-75
2022/11/09 14:43:15;;;;;;;6.57;2.50;;;;;;;;;;4994329;28;20561;-75
2022/11/09 14:45:52;;;;;;;8.45;2.38;;;;;;;;;;4991683;28;20524;-75